sensor_id;sensor_type;location;lat;lon;timestamp;pressure;altitude;pressure_sealevel;temperature;humidity
52719;BME280;38616;42.140;24.760;2022-12-18T00:01:29;100202.34;;;11.05;87.91
52719;BME280;38616;42.140;24.760;2022-12-18T00:03:56;100192.84;;;11.07;88.06
52719;BME280;38616;42.140;24.760;2022-12-18T00:06:26;100184.69;;;11.07;88.08
52719;BME280;38616;42.140;24.760;2022-12-18T00:08:52;100194.22;;;11.00;87.85
52719;BME280;38616;42.140;24.760;2022-12-18T00:11:20;100205.41;;;11.24;86.42
52719;BME280;38616;42.140;24.760;2022-12-18T00:13:46;100217.88;;;11.15;86.64
52719;BME280;38616;42.140;24.760;2022-12-18T00:16:13;100223.84;;;11.06;86.58
52719;BME280;38616;42.140;24.760;2022-12-18T00:18:39;100227.94;;;11.04;86.65
52719;BME280;38616;42.140;24.760;2022-12-18T00:21:07;100242.63;;;11.03;86.90
52719;BME280;38616;42.140;24.760;2022-12-18T00:23:34;100248.59;;;11.10;86.81
52719;BME280;38616;42.140;24.760;2022-12-18T00:26:01;100243.69;;;11.02;86.44
52719;BME280;38616;42.140;24.760;2022-12-18T00:28:26;100244.47;;;10.97;86.67
52719;BME280;38616;42.140;24.760;2022-12-18T00:31:06;100247.44;;;10.85;87.19
52719;BME280;38616;42.140;24.760;2022-12-18T00:33:32;100252.34;;;10.88;87.20
52719;BME280;38616;42.140;24.760;2022-12-18T00:36:04;100251.50;;;10.88;87.40
52719;BME280;38616;42.140;24.760;2022-12-18T00:38:30;100258.59;;;10.94;86.88
52719;BME280;38616;42.140;24.760;2022-12-18T00:40:55;100263.31;;;11.19;85.88
52719;BME280;38616;42.140;24.760;2022-12-18T00:43:21;100273.16;;;11.46;83.48
52719;BME280;38616;42.140;24.760;2022-12-18T00:45:46;100270.41;;;11.31;83.45
52719;BME280;38616;42.140;24.760;2022-12-18T00:48:11;100271.69;;;11.02;84.05
52719;BME280;38616;42.140;24.760;2022-12-18T00:50:37;100283.66;;;11.06;84.55
52719;BME280;38616;42.140;24.760;2022-12-18T00:53:03;100289.34;;;10.94;84.43
52719;BME280;38616;42.140;24.760;2022-12-18T00:55:28;100284.72;;;11.00;85.01
52719;BME280;38616;42.140;24.760;2022-12-18T00:57:54;100287.34;;;10.79;84.63
52719;BME280;38616;42.140;24.760;2022-12-18T01:00:19;100281.03;;;10.63;85.46
52719;BME280;38616;42.140;24.760;2022-12-18T01:02:45;100277.28;;;10.70;85.34
52719;BME280;38616;42.140;24.760;2022-12-18T01:05:11;100276.41;;;10.59;85.56
52719;BME280;38616;42.140;24.760;2022-12-18T01:07:37;100283.47;;;10.60;85.58
52719;BME280;38616;42.140;24.760;2022-12-18T01:10:04;100280.00;;;10.70;85.18
52719;BME280;38616;42.140;24.760;2022-12-18T01:12:29;100283.63;;;10.43;86.13
52719;BME280;38616;42.140;24.760;2022-12-18T01:14:55;100278.91;;;10.71;85.11
52719;BME280;38616;42.140;24.760;2022-12-18T01:17:21;100279.69;;;10.66;84.70
52719;BME280;38616;42.140;24.760;2022-12-18T01:19:46;100275.88;;;10.67;84.21
52719;BME280;38616;42.140;24.760;2022-12-18T01:22:12;100266.53;;;10.42;85.34
52719;BME280;38616;42.140;24.760;2022-12-18T01:24:37;100270.81;;;10.38;86.34
52719;BME280;38616;42.140;24.760;2022-12-18T01:27:03;100269.28;;;10.47;85.84
52719;BME280;38616;42.140;24.760;2022-12-18T01:29:28;100279.63;;;10.51;85.62
52719;BME280;38616;42.140;24.760;2022-12-18T01:31:55;100275.41;;;10.38;85.75
52719;BME280;38616;42.140;24.760;2022-12-18T01:34:22;100274.31;;;10.33;86.11
52719;BME280;38616;42.140;24.760;2022-12-18T01:36:47;100277.13;;;10.44;85.83
52719;BME280;38616;42.140;24.760;2022-12-18T01:39:14;100274.13;;;10.40;86.00
52719;BME280;38616;42.140;24.760;2022-12-18T01:41:41;100278.78;;;10.50;86.28
52719;BME280;38616;42.140;24.760;2022-12-18T01:47:47;100278.72;;;10.40;86.72
52719;BME280;38616;42.140;24.760;2022-12-18T01:52:42;100269.00;;;10.11;89.79
52719;BME280;38616;42.140;24.760;2022-12-18T01:55:09;100273.44;;;10.23;89.38
52719;BME280;38616;42.140;24.760;2022-12-18T01:57:35;100275.66;;;10.31;89.50
52719;BME280;38616;42.140;24.760;2022-12-18T02:00:06;100279.28;;;10.42;88.62
52719;BME280;38616;42.140;24.760;2022-12-18T02:02:32;100278.75;;;10.45;88.39
52719;BME280;38616;42.140;24.760;2022-12-18T02:04:57;100291.22;;;10.41;88.80
52719;BME280;38616;42.140;24.760;2022-12-18T02:10:24;100290.47;;;10.45;88.84
52719;BME280;38616;42.140;24.760;2022-12-18T02:15:46;100292.66;;;10.48;88.32
52719;BME280;38616;42.140;24.760;2022-12-18T02:18:25;100294.72;;;10.84;86.93
52719;BME280;38616;42.140;24.760;2022-12-18T02:23:45;100300.94;;;10.79;86.08
52719;BME280;38616;42.140;24.760;2022-12-18T02:26:31;100307.34;;;10.53;86.97
52719;BME280;38616;42.140;24.760;2022-12-18T02:29:08;100305.16;;;10.49;88.07
52719;BME280;38616;42.140;24.760;2022-12-18T02:31:49;100305.03;;;10.77;87.54
52719;BME280;38616;42.140;24.760;2022-12-18T02:34:17;100310.16;;;10.73;86.47
52719;BME280;38616;42.140;24.760;2022-12-18T02:36:44;100299.84;;;10.75;86.47
52719;BME280;38616;42.140;24.760;2022-12-18T02:39:12;100305.28;;;10.75;86.44
52719;BME280;38616;42.140;24.760;2022-12-18T02:41:39;100290.31;;;10.73;86.54
52719;BME280;38616;42.140;24.760;2022-12-18T02:44:10;100296.59;;;10.78;86.58
52719;BME280;38616;42.140;24.760;2022-12-18T02:46:46;100286.84;;;10.88;85.26
52719;BME280;38616;42.140;24.760;2022-12-18T02:49:40;100302.03;;;10.78;84.76
52719;BME280;38616;42.140;24.760;2022-12-18T02:57:36;100299.38;;;10.94;83.79
52719;BME280;38616;42.140;24.760;2022-12-18T03:00:12;100305.66;;;11.05;83.64
52719;BME280;38616;42.140;24.760;2022-12-18T03:02:42;100302.88;;;10.79;83.96
52719;BME280;38616;42.140;24.760;2022-12-18T03:05:21;100308.47;;;10.62;85.39
52719;BME280;38616;42.140;24.760;2022-12-18T03:08:03;100302.69;;;10.48;85.95
52719;BME280;38616;42.140;24.760;2022-12-18T03:10:32;100313.88;;;10.62;86.13
52719;BME280;38616;42.140;24.760;2022-12-18T03:13:06;100307.13;;;10.64;85.12
52719;BME280;38616;42.140;24.760;2022-12-18T03:15:40;100313.00;;;10.46;85.78
52719;BME280;38616;42.140;24.760;2022-12-18T03:18:15;100316.91;;;10.28;86.88
52719;BME280;38616;42.140;24.760;2022-12-18T03:20:44;100316.50;;;10.41;86.35
52719;BME280;38616;42.140;24.760;2022-12-18T03:23:15;100316.59;;;10.57;85.77
52719;BME280;38616;42.140;24.760;2022-12-18T03:25:43;100316.38;;;10.63;85.24
52719;BME280;38616;42.140;24.760;2022-12-18T03:28:19;100320.84;;;10.42;85.51
52719;BME280;38616;42.140;24.760;2022-12-18T03:30:47;100322.44;;;10.38;86.34
52719;BME280;38616;42.140;24.760;2022-12-18T03:33:24;100329.56;;;10.44;86.28
52719;BME280;38616;42.140;24.760;2022-12-18T03:35:51;100326.44;;;10.68;85.21
52719;BME280;38616;42.140;24.760;2022-12-18T03:38:16;100331.19;;;10.45;85.68
52719;BME280;38616;42.140;24.760;2022-12-18T03:43:20;100339.69;;;10.59;83.93
52719;BME280;38616;42.140;24.760;2022-12-18T03:46:03;100346.56;;;10.72;83.23
52719;BME280;38616;42.140;24.760;2022-12-18T03:48:43;100358.03;;;10.79;82.87
52719;BME280;38616;42.140;24.760;2022-12-18T03:51:40;100360.09;;;10.62;83.37
52719;BME280;38616;42.140;24.760;2022-12-18T03:54:07;100368.00;;;10.63;83.22
52719;BME280;38616;42.140;24.760;2022-12-18T03:56:38;100371.81;;;10.68;83.63
52719;BME280;38616;42.140;24.760;2022-12-18T03:59:05;100365.00;;;10.65;83.42
52719;BME280;38616;42.140;24.760;2022-12-18T04:01:39;100379.75;;;10.79;82.71
52719;BME280;38616;42.140;24.760;2022-12-18T04:04:06;100379.16;;;10.72;82.79
52719;BME280;38616;42.140;24.760;2022-12-18T04:06:35;100374.97;;;10.54;82.89
52719;BME280;38616;42.140;24.760;2022-12-18T04:09:01;100389.31;;;10.44;83.22
52719;BME280;38616;42.140;24.760;2022-12-18T04:11:27;100394.28;;;10.53;82.52
52719;BME280;38616;42.140;24.760;2022-12-18T04:13:56;100386.91;;;10.48;83.20
52719;BME280;38616;42.140;24.760;2022-12-18T04:16:23;100389.69;;;10.58;82.70
52719;BME280;38616;42.140;24.760;2022-12-18T04:18:48;100389.94;;;10.52;82.04
52719;BME280;38616;42.140;24.760;2022-12-18T04:21:14;100398.84;;;10.47;81.83
52719;BME280;38616;42.140;24.760;2022-12-18T04:23:39;100387.16;;;10.19;83.73
52719;BME280;38616;42.140;24.760;2022-12-18T04:26:05;100387.56;;;10.33;83.20
52719;BME280;38616;42.140;24.760;2022-12-18T04:28:30;100401.03;;;10.50;82.50
52719;BME280;38616;42.140;24.760;2022-12-18T04:30:55;100390.00;;;10.34;82.10
52719;BME280;38616;42.140;24.760;2022-12-18T04:33:21;100403.72;;;10.17;82.26
52719;BME280;38616;42.140;24.760;2022-12-18T04:35:46;100404.16;;;10.04;82.73
52719;BME280;38616;42.140;24.760;2022-12-18T04:38:12;100410.25;;;10.16;81.84
52719;BME280;38616;42.140;24.760;2022-12-18T04:40:38;100406.59;;;10.33;81.02
52719;BME280;38616;42.140;24.760;2022-12-18T04:43:03;100406.03;;;10.31;80.40
52719;BME280;38616;42.140;24.760;2022-12-18T04:45:30;100406.22;;;10.24;80.30
52719;BME280;38616;42.140;24.760;2022-12-18T04:47:59;100413.22;;;10.15;80.27
52719;BME280;38616;42.140;24.760;2022-12-18T04:50:24;100415.56;;;10.06;79.65
52719;BME280;38616;42.140;24.760;2022-12-18T04:52:50;100429.31;;;9.94;79.20
52719;BME280;38616;42.140;24.760;2022-12-18T04:55:15;100428.97;;;10.18;78.81
52719;BME280;38616;42.140;24.760;2022-12-18T04:57:40;100434.16;;;10.19;78.69
52719;BME280;38616;42.140;24.760;2022-12-18T05:00:06;100439.03;;;10.17;77.70
52719;BME280;38616;42.140;24.760;2022-12-18T05:02:32;100452.09;;;10.20;77.30
52719;BME280;38616;42.140;24.760;2022-12-18T05:04:57;100455.09;;;9.97;77.95
52719;BME280;38616;42.140;24.760;2022-12-18T05:07:23;100464.03;;;9.92;77.08
52719;BME280;38616;42.140;24.760;2022-12-18T05:09:48;100457.13;;;9.84;77.57
52719;BME280;38616;42.140;24.760;2022-12-18T05:12:14;100453.06;;;9.82;77.85
52719;BME280;38616;42.140;24.760;2022-12-18T05:14:39;100454.69;;;9.83;77.15
52719;BME280;38616;42.140;24.760;2022-12-18T05:17:04;100457.50;;;9.66;78.03
52719;BME280;38616;42.140;24.760;2022-12-18T05:19:30;100459.31;;;9.38;78.32
52719;BME280;38616;42.140;24.760;2022-12-18T05:21:55;100468.19;;;9.33;78.96
52719;BME280;38616;42.140;24.760;2022-12-18T05:24:21;100474.63;;;9.27;79.15
52719;BME280;38616;42.140;24.760;2022-12-18T05:26:46;100477.50;;;9.59;78.68
52719;BME280;38616;42.140;24.760;2022-12-18T05:29:12;100494.63;;;9.87;78.24
52719;BME280;38616;42.140;24.760;2022-12-18T05:31:38;100493.50;;;9.83;78.08
52719;BME280;38616;42.140;24.760;2022-12-18T05:34:04;100495.72;;;9.64;77.93
52719;BME280;38616;42.140;24.760;2022-12-18T05:36:29;100496.59;;;9.70;77.99
52719;BME280;38616;42.140;24.760;2022-12-18T05:38:54;100502.97;;;9.81;77.87
52719;BME280;38616;42.140;24.760;2022-12-18T05:41:20;100509.97;;;9.76;77.75
52719;BME280;38616;42.140;24.760;2022-12-18T05:43:45;100513.38;;;9.67;77.90
52719;BME280;38616;42.140;24.760;2022-12-18T05:46:15;100522.13;;;9.52;78.28
52719;BME280;38616;42.140;24.760;2022-12-18T05:48:43;100524.03;;;9.51;78.06
52719;BME280;38616;42.140;24.760;2022-12-18T05:51:14;100526.81;;;9.79;77.23
52719;BME280;38616;42.140;24.760;2022-12-18T05:53:41;100523.47;;;9.94;76.34
52719;BME280;38616;42.140;24.760;2022-12-18T05:56:10;100528.16;;;9.98;76.49
52719;BME280;38616;42.140;24.760;2022-12-18T05:58:36;100536.34;;;10.03;76.26
52719;BME280;38616;42.140;24.760;2022-12-18T06:01:14;100547.13;;;9.76;75.71
52719;BME280;38616;42.140;24.760;2022-12-18T06:03:39;100542.09;;;9.85;74.84
52719;BME280;38616;42.140;24.760;2022-12-18T06:06:13;100549.16;;;9.64;75.83
52719;BME280;38616;42.140;24.760;2022-12-18T06:08:39;100555.16;;;9.66;75.70
52719;BME280;38616;42.140;24.760;2022-12-18T06:11:04;100558.50;;;9.34;76.56
52719;BME280;38616;42.140;24.760;2022-12-18T06:13:29;100550.09;;;9.35;77.14
52719;BME280;38616;42.140;24.760;2022-12-18T06:15:55;100566.78;;;9.44;76.18
52719;BME280;38616;42.140;24.760;2022-12-18T06:18:20;100547.53;;;9.45;76.38
52719;BME280;38616;42.140;24.760;2022-12-18T06:20:54;100556.81;;;9.50;75.79
52719;BME280;38616;42.140;24.760;2022-12-18T06:23:20;100560.44;;;9.55;74.72
52719;BME280;38616;42.140;24.760;2022-12-18T06:25:45;100566.09;;;9.71;75.05
52719;BME280;38616;42.140;24.760;2022-12-18T06:28:10;100569.66;;;9.54;74.54
52719;BME280;38616;42.140;24.760;2022-12-18T06:30:36;100575.91;;;9.77;74.23
52719;BME280;38616;42.140;24.760;2022-12-18T06:33:01;100577.13;;;9.86;73.66
52719;BME280;38616;42.140;24.760;2022-12-18T06:35:27;100588.91;;;9.75;73.66
52719;BME280;38616;42.140;24.760;2022-12-18T06:37:52;100587.41;;;9.84;73.20
52719;BME280;38616;42.140;24.760;2022-12-18T06:40:17;100592.34;;;10.10;72.84
52719;BME280;38616;42.140;24.760;2022-12-18T06:42:43;100595.94;;;9.93;72.46
52719;BME280;38616;42.140;24.760;2022-12-18T06:45:09;100595.44;;;9.96;72.10
52719;BME280;38616;42.140;24.760;2022-12-18T06:47:34;100606.97;;;9.86;72.01
52719;BME280;38616;42.140;24.760;2022-12-18T06:49:59;100612.50;;;9.74;72.52
52719;BME280;38616;42.140;24.760;2022-12-18T06:52:25;100620.97;;;9.78;72.23
52719;BME280;38616;42.140;24.760;2022-12-18T06:54:50;100611.53;;;10.03;72.52
52719;BME280;38616;42.140;24.760;2022-12-18T06:57:16;100624.66;;;10.11;72.02
52719;BME280;38616;42.140;24.760;2022-12-18T06:59:41;100614.50;;;10.01;71.48
52719;BME280;38616;42.140;24.760;2022-12-18T07:02:13;100621.88;;;10.06;71.15
52719;BME280;38616;42.140;24.760;2022-12-18T07:04:39;100623.81;;;9.88;71.70
52719;BME280;38616;42.140;24.760;2022-12-18T07:07:04;100622.75;;;9.89;71.97
52719;BME280;38616;42.140;24.760;2022-12-18T07:09:29;100626.19;;;10.02;71.59
52719;BME280;38616;42.140;24.760;2022-12-18T07:11:55;100630.38;;;10.10;71.65
52719;BME280;38616;42.140;24.760;2022-12-18T07:14:20;100627.50;;;9.99;71.68
52719;BME280;38616;42.140;24.760;2022-12-18T07:16:46;100632.59;;;9.96;71.57
52719;BME280;38616;42.140;24.760;2022-12-18T07:19:12;100639.22;;;9.83;72.04
52719;BME280;38616;42.140;24.760;2022-12-18T07:21:37;100646.03;;;9.85;71.84
52719;BME280;38616;42.140;24.760;2022-12-18T07:24:03;100644.53;;;9.95;71.18
52719;BME280;38616;42.140;24.760;2022-12-18T07:26:28;100659.28;;;9.82;71.30
52719;BME280;38616;42.140;24.760;2022-12-18T07:28:57;100663.19;;;9.69;71.85
52719;BME280;38616;42.140;24.760;2022-12-18T07:31:23;100657.00;;;9.73;71.51
52719;BME280;38616;42.140;24.760;2022-12-18T07:33:50;100657.31;;;9.77;71.62
52719;BME280;38616;42.140;24.760;2022-12-18T07:36:16;100654.53;;;9.72;71.50
52719;BME280;38616;42.140;24.760;2022-12-18T07:38:41;100661.25;;;9.86;71.01
52719;BME280;38616;42.140;24.760;2022-12-18T07:41:10;100664.13;;;9.97;70.52
52719;BME280;38616;42.140;24.760;2022-12-18T07:43:37;100660.44;;;9.86;70.39
52719;BME280;38616;42.140;24.760;2022-12-18T07:46:03;100665.28;;;9.84;70.50
52719;BME280;38616;42.140;24.760;2022-12-18T07:48:29;100664.09;;;10.14;69.90
52719;BME280;38616;42.140;24.760;2022-12-18T07:51:03;100682.25;;;10.13;69.51
52719;BME280;38616;42.140;24.760;2022-12-18T07:53:29;100670.88;;;9.77;70.11
52719;BME280;38616;42.140;24.760;2022-12-18T07:56:01;100678.16;;;10.11;69.70
52719;BME280;38616;42.140;24.760;2022-12-18T07:58:27;100679.31;;;9.98;69.47
52719;BME280;38616;42.140;24.760;2022-12-18T08:00:53;100690.09;;;10.10;68.70
52719;BME280;38616;42.140;24.760;2022-12-18T08:03:19;100693.84;;;9.69;69.64
52719;BME280;38616;42.140;24.760;2022-12-18T08:05:44;100694.03;;;9.63;69.72
52719;BME280;38616;42.140;24.760;2022-12-18T08:08:10;100702.06;;;9.57;70.02
52719;BME280;38616;42.140;24.760;2022-12-18T08:10:35;100705.50;;;9.87;69.29
52719;BME280;38616;42.140;24.760;2022-12-18T08:13:02;100704.88;;;9.63;69.48
52719;BME280;38616;42.140;24.760;2022-12-18T08:15:27;100702.66;;;9.59;69.86
52719;BME280;38616;42.140;24.760;2022-12-18T08:17:56;100710.63;;;9.66;69.72
52719;BME280;38616;42.140;24.760;2022-12-18T08:20:21;100720.53;;;9.95;68.96
52719;BME280;38616;42.140;24.760;2022-12-18T08:22:47;100720.47;;;9.89;68.43
52719;BME280;38616;42.140;24.760;2022-12-18T08:25:12;100719.81;;;9.65;68.87
52719;BME280;38616;42.140;24.760;2022-12-18T08:27:37;100720.56;;;9.60;69.13
52719;BME280;38616;42.140;24.760;2022-12-18T08:30:04;100723.19;;;9.89;68.73
52719;BME280;38616;42.140;24.760;2022-12-18T08:32:29;100734.47;;;9.98;67.43
52719;BME280;38616;42.140;24.760;2022-12-18T08:34:55;100724.06;;;10.12;67.36
52719;BME280;38616;42.140;24.760;2022-12-18T08:37:20;100709.41;;;10.13;66.55
52719;BME280;38616;42.140;24.760;2022-12-18T08:39:46;100722.38;;;9.89;67.84
52719;BME280;38616;42.140;24.760;2022-12-18T08:42:11;100713.88;;;10.02;67.49
52719;BME280;38616;42.140;24.760;2022-12-18T08:44:55;100719.28;;;10.19;66.85
52719;BME280;38616;42.140;24.760;2022-12-18T08:47:20;100712.78;;;10.20;66.32
52719;BME280;38616;42.140;24.760;2022-12-18T08:49:46;100708.59;;;10.13;66.67
52719;BME280;38616;42.140;24.760;2022-12-18T08:52:14;100715.16;;;10.17;66.38
52719;BME280;38616;42.140;24.760;2022-12-18T08:54:40;100703.84;;;10.03;66.53
52719;BME280;38616;42.140;24.760;2022-12-18T08:57:05;100711.81;;;9.93;66.63
52719;BME280;38616;42.140;24.760;2022-12-18T08:59:30;100720.47;;;10.07;66.87
52719;BME280;38616;42.140;24.760;2022-12-18T09:01:56;100710.47;;;10.12;66.64
52719;BME280;38616;42.140;24.760;2022-12-18T09:04:22;100704.44;;;10.27;66.11
52719;BME280;38616;42.140;24.760;2022-12-18T09:06:47;100696.34;;;10.32;65.97
52719;BME280;38616;42.140;24.760;2022-12-18T09:09:13;100703.78;;;10.20;66.07
52719;BME280;38616;42.140;24.760;2022-12-18T09:11:38;100715.50;;;10.20;65.76
52719;BME280;38616;42.140;24.760;2022-12-18T09:14:04;100715.91;;;10.12;66.53
52719;BME280;38616;42.140;24.760;2022-12-18T09:16:29;100717.69;;;10.01;66.24
52719;BME280;38616;42.140;24.760;2022-12-18T09:18:57;100722.69;;;9.93;66.45
52719;BME280;38616;42.140;24.760;2022-12-18T09:21:28;100715.19;;;10.00;66.10
52719;BME280;38616;42.140;24.760;2022-12-18T09:23:54;100729.03;;;9.98;65.92
52719;BME280;38616;42.140;24.760;2022-12-18T09:26:21;100717.84;;;9.78;66.69
52719;BME280;38616;42.140;24.760;2022-12-18T09:28:46;100716.94;;;9.72;66.02
52719;BME280;38616;42.140;24.760;2022-12-18T09:31:16;100710.47;;;10.12;65.96
52719;BME280;38616;42.140;24.760;2022-12-18T09:33:42;100710.41;;;10.07;66.27
52719;BME280;38616;42.140;24.760;2022-12-18T09:36:10;100711.44;;;10.40;65.24
52719;BME280;38616;42.140;24.760;2022-12-18T09:38:36;100714.22;;;10.28;65.29
52719;BME280;38616;42.140;24.760;2022-12-18T09:41:30;100711.56;;;10.11;65.28
52719;BME280;38616;42.140;24.760;2022-12-18T09:44:03;100720.41;;;10.24;65.26
52719;BME280;38616;42.140;24.760;2022-12-18T09:46:38;100717.81;;;10.12;65.69
52719;BME280;38616;42.140;24.760;2022-12-18T09:49:12;100710.91;;;10.04;65.82
52719;BME280;38616;42.140;24.760;2022-12-18T09:54:32;100711.75;;;10.04;65.83
52719;BME280;38616;42.140;24.760;2022-12-18T09:57:00;100715.28;;;10.27;65.24
52719;BME280;38616;42.140;24.760;2022-12-18T09:59:37;100711.06;;;10.14;65.73
52719;BME280;38616;42.140;24.760;2022-12-18T10:02:19;100720.47;;;10.07;65.81
52719;BME280;38616;42.140;24.760;2022-12-18T10:05:03;100720.41;;;10.24;65.40
52719;BME280;38616;42.140;24.760;2022-12-18T10:10:51;100729.06;;;10.20;65.44
52719;BME280;38616;42.140;24.760;2022-12-18T10:13:38;100718.00;;;10.44;65.36
52719;BME280;38616;42.140;24.760;2022-12-18T10:16:18;100710.00;;;10.55;64.81
52719;BME280;38616;42.140;24.760;2022-12-18T10:21:45;100714.41;;;10.61;64.77
52719;BME280;38616;42.140;24.760;2022-12-18T10:26:48;100716.19;;;10.33;65.39
52719;BME280;38616;42.140;24.760;2022-12-18T10:29:15;100709.22;;;10.59;64.51
52719;BME280;38616;42.140;24.760;2022-12-18T10:31:41;100718.22;;;10.60;64.04
52719;BME280;38616;42.140;24.760;2022-12-18T10:34:11;100715.53;;;10.65;64.07
52719;BME280;38616;42.140;24.760;2022-12-18T10:36:42;100720.97;;;10.43;64.28
52719;BME280;38616;42.140;24.760;2022-12-18T10:39:18;100721.22;;;10.24;64.96
52719;BME280;38616;42.140;24.760;2022-12-18T10:41:43;100725.22;;;10.39;64.60
52719;BME280;38616;42.140;24.760;2022-12-18T10:44:16;100723.22;;;10.29;65.00
52719;BME280;38616;42.140;24.760;2022-12-18T10:46:42;100727.84;;;10.11;65.12
52719;BME280;38616;42.140;24.760;2022-12-18T10:49:29;100728.59;;;10.07;65.13
52719;BME280;38616;42.140;24.760;2022-12-18T10:52:16;100737.56;;;10.07;64.58
52719;BME280;38616;42.140;24.760;2022-12-18T10:55:02;100739.63;;;10.00;64.88
52719;BME280;38616;42.140;24.760;2022-12-18T10:59:57;100746.28;;;10.09;65.08
52719;BME280;38616;42.140;24.760;2022-12-18T11:02:37;100747.81;;;10.22;65.51
52719;BME280;38616;42.140;24.760;2022-12-18T11:05:32;100763.16;;;9.94;65.99
52719;BME280;38616;42.140;24.760;2022-12-18T11:07:59;100766.69;;;9.78;67.17
52719;BME280;38616;42.140;24.760;2022-12-18T11:10:36;100759.78;;;9.87;67.58
52719;BME280;38616;42.140;24.760;2022-12-18T11:13:29;100757.63;;;9.72;67.31
52719;BME280;38616;42.140;24.760;2022-12-18T11:15:56;100758.47;;;9.89;66.84
52719;BME280;38616;42.140;24.760;2022-12-18T11:18:35;100772.13;;;9.95;66.74
52719;BME280;38616;42.140;24.760;2022-12-18T11:21:09;100768.00;;;10.09;67.20
52719;BME280;38616;42.140;24.760;2022-12-18T11:23:36;100768.19;;;10.02;67.29
52719;BME280;38616;42.140;24.760;2022-12-18T11:26:04;100766.78;;;10.00;69.13
52719;BME280;38616;42.140;24.760;2022-12-18T11:28:49;100766.78;;;9.83;69.29
52719;BME280;38616;42.140;24.760;2022-12-18T11:31:26;100778.34;;;9.44;69.65
52719;BME280;38616;42.140;24.760;2022-12-18T11:34:23;100770.31;;;9.20;70.21
52719;BME280;38616;42.140;24.760;2022-12-18T11:36:52;100769.63;;;9.59;69.82
52719;BME280;38616;42.140;24.760;2022-12-18T11:39:34;100774.69;;;9.38;69.74
52719;BME280;38616;42.140;24.760;2022-12-18T11:42:20;100779.97;;;9.45;69.00
52719;BME280;38616;42.140;24.760;2022-12-18T11:45:24;100767.41;;;9.39;68.49
52719;BME280;38616;42.140;24.760;2022-12-18T11:50:55;100779.84;;;9.23;68.87
52719;BME280;38616;42.140;24.760;2022-12-18T11:53:23;100772.38;;;9.30;69.66
52719;BME280;38616;42.140;24.760;2022-12-18T12:01:51;100782.91;;;9.26;69.42
52719;BME280;38616;42.140;24.760;2022-12-18T12:12:55;100785.50;;;9.21;66.87
52719;BME280;38616;42.140;24.760;2022-12-18T12:18:59;100780.25;;;9.60;66.19
52719;BME280;38616;42.140;24.760;2022-12-18T12:21:35;100774.84;;;9.60;65.60
52719;BME280;38616;42.140;24.760;2022-12-18T12:27:06;100779.97;;;9.45;65.45
52719;BME280;38616;42.140;24.760;2022-12-18T12:35:51;100789.59;;;9.53;64.55
52719;BME280;38616;42.140;24.760;2022-12-18T12:38:24;100796.16;;;9.69;64.22
52719;BME280;38616;42.140;24.760;2022-12-18T12:40:59;100801.63;;;9.74;63.87
52719;BME280;38616;42.140;24.760;2022-12-18T12:43:46;100806.81;;;9.93;63.06
52719;BME280;38616;42.140;24.760;2022-12-18T12:46:16;100811.75;;;9.79;62.75
52719;BME280;38616;42.140;24.760;2022-12-18T12:48:56;100816.72;;;9.53;63.64
52719;BME280;38616;42.140;24.760;2022-12-18T12:51:44;100823.50;;;9.38;63.38
52719;BME280;38616;42.140;24.760;2022-12-18T12:54:23;100821.69;;;9.27;63.32
52719;BME280;38616;42.140;24.760;2022-12-18T12:59:56;100837.50;;;9.18;63.51
52719;BME280;38616;42.140;24.760;2022-12-18T13:02:31;100838.09;;;9.20;63.63
52719;BME280;38616;42.140;24.760;2022-12-18T13:05:18;100840.56;;;9.22;63.39
52719;BME280;38616;42.140;24.760;2022-12-18T13:12:59;100855.19;;;9.21;63.76
52719;BME280;38616;42.140;24.760;2022-12-18T13:15:32;100859.16;;;9.30;63.85
52719;BME280;38616;42.140;24.760;2022-12-18T13:25:54;100860.19;;;9.70;62.16
52719;BME280;38616;42.140;24.760;2022-12-18T13:29:09;100861.75;;;9.66;62.20
52719;BME280;38616;42.140;24.760;2022-12-18T13:31:10;100869.16;;;9.70;62.15
52719;BME280;38616;42.140;24.760;2022-12-18T13:33:38;100870.63;;;9.78;62.19
52719;BME280;38616;42.140;24.760;2022-12-18T13:36:23;100874.09;;;9.90;61.36
52719;BME280;38616;42.140;24.760;2022-12-18T13:41:49;100873.75;;;9.70;61.79
52719;BME280;38616;42.140;24.760;2022-12-18T13:44:34;100877.97;;;9.49;62.67
52719;BME280;38616;42.140;24.760;2022-12-18T13:47:01;100878.31;;;9.52;63.15
52719;BME280;38616;42.140;24.760;2022-12-18T13:49:37;100883.63;;;9.76;63.82
52719;BME280;38616;42.140;24.760;2022-12-18T13:52:16;100883.91;;;9.91;64.00
52719;BME280;38616;42.140;24.760;2022-12-18T13:54:42;100881.22;;;10.26;64.07
52719;BME280;38616;42.140;24.760;2022-12-18T13:57:33;100888.44;;;10.20;65.62
52719;BME280;38616;42.140;24.760;2022-12-18T14:02:45;100901.31;;;10.25;68.69
52719;BME280;38616;42.140;24.760;2022-12-18T14:05:25;100910.19;;;10.20;69.55
52719;BME280;38616;42.140;24.760;2022-12-18T14:07:55;100917.13;;;10.28;69.79
52719;BME280;38616;42.140;24.760;2022-12-18T14:10:25;100914.03;;;10.24;70.32
52719;BME280;38616;42.140;24.760;2022-12-18T14:12:51;100921.34;;;10.53;70.16
52719;BME280;38616;42.140;24.760;2022-12-18T14:18:02;100931.47;;;10.40;68.29
52719;BME280;38616;42.140;24.760;2022-12-18T14:20:31;100937.09;;;10.22;69.49
52719;BME280;38616;42.140;24.760;2022-12-18T14:22:57;100932.38;;;10.00;66.99
52719;BME280;38616;42.140;24.760;2022-12-18T14:25:25;100937.00;;;9.99;66.79
52719;BME280;38616;42.140;24.760;2022-12-18T14:27:52;100945.38;;;9.98;66.23